createdAt,value
2022-10-19T00:01:16.743Z,17.80
2022-10-19T00:03:46.682Z,17.65
2022-10-19T00:06:26.260Z,16.88
2022-10-19T00:08:58.540Z,20.88
2022-10-19T00:11:26.883Z,18.08
2022-10-19T00:13:55.493Z,15.95
2022-10-19T00:16:23.739Z,14.90
2022-10-19T00:18:50.909Z,13.82
2022-10-19T00:21:19.872Z,16.70
2022-10-19T00:23:47.445Z,14.38
2022-10-19T00:26:14.774Z,17.20
2022-10-19T00:28:42.753Z,15.07
2022-10-19T00:31:15.187Z,14.40
2022-10-19T00:33:43.863Z,13.23
2022-10-19T00:36:20.323Z,14.02
2022-10-19T00:38:48.316Z,15.30
2022-10-19T00:41:17.319Z,17.90
2022-10-19T00:43:57.972Z,12.98
2022-10-19T00:46:26.626Z,17.13
2022-10-19T00:49:01.064Z,14.90
2022-10-19T00:51:30.585Z,21.83
2022-10-19T00:53:58.196Z,16.83
2022-10-19T00:56:25.443Z,13.50
2022-10-19T00:58:52.920Z,19.98
2022-10-19T01:01:24.076Z,17.02
2022-10-19T01:03:51.441Z,25.27
2022-10-19T01:06:20.073Z,14.15
2022-10-19T01:08:47.548Z,13.75
2022-10-19T01:11:29.733Z,14.57
2022-10-19T01:14:38.894Z,17.00
2022-10-19T01:17:12.035Z,17.42
2022-10-19T01:19:57.702Z,18.50
2022-10-19T01:22:37.064Z,14.45
2022-10-19T01:25:24.853Z,17.90
2022-10-19T01:28:15.430Z,14.98
2022-10-19T01:31:14.636Z,14.80
2022-10-19T01:34:02.316Z,19.08
2022-10-19T01:36:48.160Z,23.40
2022-10-19T01:39:23.603Z,18.17
2022-10-19T01:42:08.149Z,13.55
2022-10-19T01:44:50.633Z,17.42
2022-10-19T01:47:25.195Z,17.30
2022-10-19T01:50:29.224Z,12.95
2022-10-19T01:52:58.086Z,22.02
2022-10-19T01:55:27.242Z,16.38
2022-10-19T01:58:00.744Z,20.40
2022-10-19T02:00:29.814Z,17.10
2022-10-19T02:02:58.814Z,14.90
2022-10-19T02:05:31.646Z,16.73
2022-10-19T02:08:03.307Z,16.05
2022-10-19T02:10:33.966Z,11.93
2022-10-19T02:13:03.592Z,14.77
2022-10-19T02:15:35.442Z,12.25
2022-10-19T02:18:04.132Z,13.18
2022-10-19T02:20:31.783Z,16.42
2022-10-19T02:22:59.155Z,13.18
2022-10-19T02:25:27.135Z,16.48
2022-10-19T02:27:54.625Z,15.20
2022-10-19T02:30:22.693Z,18.13
2022-10-19T02:32:50.601Z,11.05
2022-10-19T02:35:18.195Z,16.67
2022-10-19T02:37:45.953Z,15.05
2022-10-19T02:40:13.487Z,15.52
2022-10-19T02:42:43.617Z,13.60
2022-10-19T02:45:18.005Z,19.27
2022-10-19T02:48:02.595Z,17.73
2022-10-19T02:50:29.923Z,18.80
2022-10-19T02:52:59.693Z,13.88
2022-10-19T02:55:27.031Z,15.20
2022-10-19T02:57:55.090Z,15.50
2022-10-19T03:00:22.380Z,17.30
2022-10-19T03:02:49.627Z,19.95
2022-10-19T03:05:16.873Z,15.27
2022-10-19T03:07:44.027Z,16.70
2022-10-19T03:10:11.248Z,14.68
2022-10-19T03:12:38.507Z,16.77
2022-10-19T03:15:06.573Z,17.52
2022-10-19T03:17:34.150Z,15.35
2022-10-19T03:20:01.422Z,13.57
2022-10-19T03:22:28.664Z,17.33
2022-10-19T03:24:56.019Z,14.20
2022-10-19T03:27:23.100Z,11.30
2022-10-19T03:29:50.268Z,14.15
2022-10-19T03:32:17.440Z,11.77
2022-10-19T03:34:44.486Z,11.95
2022-10-19T03:37:13.747Z,10.73
2022-10-19T03:39:41.272Z,13.83
2022-10-19T03:42:08.369Z,15.43
2022-10-19T03:44:35.633Z,13.55
2022-10-19T03:47:02.787Z,11.30
2022-10-19T03:49:29.933Z,13.18
2022-10-19T03:51:58.104Z,11.43
2022-10-19T03:54:27.409Z,11.43
2022-10-19T03:56:54.904Z,13.93
2022-10-19T03:59:23.443Z,12.93
2022-10-19T04:01:50.723Z,10.65
2022-10-19T04:04:19.603Z,10.73
2022-10-19T04:06:49.156Z,14.05
2022-10-19T04:09:19.294Z,14.20
2022-10-19T04:11:46.836Z,11.95
2022-10-19T04:14:22.876Z,14.98
2022-10-19T04:17:01.729Z,14.23
2022-10-19T04:19:28.996Z,11.07
2022-10-19T04:21:56.386Z,11.02
2022-10-19T04:24:23.917Z,12.85
2022-10-19T04:26:53.496Z,13.95
2022-10-19T04:29:23.802Z,13.40
2022-10-19T04:31:53.935Z,15.15
2022-10-19T04:34:21.273Z,15.05
2022-10-19T04:36:48.357Z,10.02
2022-10-19T04:39:16.604Z,15.60
2022-10-19T04:41:43.744Z,11.38
2022-10-19T04:44:11.055Z,10.93
2022-10-19T04:46:38.870Z,10.40
2022-10-19T04:49:07.385Z,10.90
2022-10-19T04:51:35.134Z,11.30
2022-10-19T04:54:04.084Z,14.25
2022-10-19T04:56:32.733Z,8.15
2022-10-19T04:59:01.268Z,12.23
2022-10-19T05:01:31.128Z,10.65
2022-10-19T05:04:00.912Z,14.20
2022-10-19T05:06:29.136Z,12.73
2022-10-19T05:08:56.688Z,9.98
2022-10-19T05:11:24.215Z,10.88
2022-10-19T05:13:52.110Z,16.48
2022-10-19T05:16:22.207Z,12.52
2022-10-19T05:18:50.963Z,12.75
2022-10-19T05:21:19.394Z,10.38
2022-10-19T05:23:46.447Z,14.70
2022-10-19T05:26:18.298Z,11.32
2022-10-19T05:28:50.385Z,14.65
2022-10-19T05:31:20.020Z,9.40
2022-10-19T05:33:47.696Z,16.50
2022-10-19T05:36:22.434Z,12.00
2022-10-19T05:38:50.843Z,11.20
2022-10-19T05:41:18.083Z,10.23
2022-10-19T05:43:46.163Z,9.98
2022-10-19T05:46:18.172Z,12.35
2022-10-19T05:48:46.586Z,10.57
2022-10-19T05:51:16.856Z,9.45
2022-10-19T05:53:44.933Z,12.13
2022-10-19T05:56:19.057Z,10.57
2022-10-19T05:58:46.520Z,8.45
2022-10-19T06:01:14.493Z,11.32
2022-10-19T06:03:42.388Z,12.50
2022-10-19T06:06:10.168Z,11.25
2022-10-19T06:08:39.149Z,9.65
2022-10-19T06:11:18.943Z,11.55
2022-10-19T06:13:47.938Z,13.25
2022-10-19T06:16:16.457Z,9.90
2022-10-19T06:18:44.290Z,8.93
2022-10-19T06:21:17.893Z,13.57
2022-10-19T06:23:46.131Z,9.13
2022-10-19T06:26:14.851Z,9.25
2022-10-19T06:28:44.259Z,7.55
2022-10-19T06:31:13.735Z,7.20
2022-10-19T06:33:43.927Z,13.17
2022-10-19T06:36:14.852Z,10.10
2022-10-19T06:38:42.626Z,5.68
2022-10-19T06:41:11.295Z,8.23
2022-10-19T06:43:38.982Z,9.38
2022-10-19T06:46:12.212Z,10.50
2022-10-19T06:48:39.466Z,8.90
2022-10-19T06:51:07.961Z,10.82
2022-10-19T06:53:36.325Z,7.03
2022-10-19T06:56:06.333Z,10.18
2022-10-19T06:58:38.053Z,13.10
2022-10-19T07:01:10.610Z,9.13
2022-10-19T07:03:38.159Z,7.90
2022-10-19T07:06:10.407Z,5.70
2022-10-19T07:08:39.275Z,9.63
2022-10-19T07:11:09.453Z,12.68
2022-10-19T07:13:37.035Z,7.95
2022-10-19T07:16:16.147Z,8.15
2022-10-19T07:18:47.469Z,6.70
2022-10-19T07:21:16.667Z,8.70
2022-10-19T07:23:45.657Z,8.38
2022-10-19T07:26:26.801Z,8.15
2022-10-19T07:28:57.066Z,8.90
2022-10-19T07:31:25.623Z,7.22
2022-10-19T07:34:01.532Z,8.30
2022-10-19T07:36:30.799Z,11.65
2022-10-19T07:38:58.173Z,12.65
2022-10-19T07:41:26.442Z,10.27
2022-10-19T07:43:54.807Z,8.30
2022-10-19T07:46:25.726Z,7.68
2022-10-19T07:48:53.851Z,8.15
2022-10-19T07:51:21.815Z,6.10
2022-10-19T07:53:49.026Z,7.90
2022-10-19T07:56:21.358Z,7.40
2022-10-19T07:58:50.817Z,10.70
2022-10-19T08:01:41.639Z,5.43
2022-10-19T08:06:56.129Z,5.90
2022-10-19T08:09:50.987Z,6.88
2022-10-19T08:12:14.788Z,7.82
2022-10-19T08:14:42.425Z,8.45
2022-10-19T08:17:12.304Z,7.43
2022-10-19T08:19:43.692Z,6.00
2022-10-19T08:22:11.608Z,9.40
2022-10-19T08:24:39.075Z,10.35
2022-10-19T08:27:06.367Z,8.10
2022-10-19T08:29:33.590Z,9.52
2022-10-19T08:32:00.703Z,6.65
2022-10-19T08:34:28.095Z,6.93
2022-10-19T08:36:55.395Z,10.43
2022-10-19T08:39:22.622Z,8.32
2022-10-19T08:42:02.356Z,6.03
2022-10-19T08:44:51.359Z,9.25
2022-10-19T08:48:09.003Z,3.78
2022-10-19T08:50:39.983Z,7.53
2022-10-19T08:53:31.982Z,4.55
2022-10-19T08:56:22.151Z,3.95
2022-10-19T09:01:59.279Z,5.70
2022-10-19T09:04:35.264Z,5.45
2022-10-19T09:07:23.074Z,6.85
2022-10-19T09:09:58.083Z,4.10
2022-10-19T09:12:55.028Z,3.70
2022-10-19T09:15:46.903Z,2.67
2022-10-19T09:18:28.637Z,2.78
2022-10-19T09:21:04.959Z,2.97
2022-10-19T09:23:45.582Z,3.55
2022-10-19T09:26:18.252Z,4.75
2022-10-19T09:28:52.267Z,3.90
2022-10-19T09:31:31.823Z,4.75
2022-10-19T09:34:08.986Z,7.40
2022-10-19T09:36:56.973Z,3.83
2022-10-19T09:39:29.303Z,3.63
2022-10-19T09:42:08.286Z,3.85
2022-10-19T09:44:36.545Z,2.70
2022-10-19T09:47:27.183Z,3.30
2022-10-19T09:50:09.392Z,3.25
2022-10-19T09:52:39.773Z,2.13
2022-10-19T09:57:52.063Z,2.33
2022-10-19T10:00:26.463Z,0.98
2022-10-19T10:02:55.845Z,5.53
2022-10-19T10:05:35.313Z,2.77
2022-10-19T10:08:03.036Z,2.90
2022-10-19T10:10:37.567Z,1.33
2022-10-19T10:13:06.450Z,1.83
2022-10-19T10:15:55.291Z,1.65
2022-10-19T10:18:25.106Z,3.13
2022-10-19T10:21:00.552Z,0.93
2022-10-19T10:23:36.537Z,4.05
2022-10-19T10:26:05.258Z,2.67
2022-10-19T10:28:32.981Z,2.38
2022-10-19T10:31:11.068Z,3.53
2022-10-19T10:33:46.271Z,2.20
2022-10-19T10:36:15.120Z,2.53
2022-10-19T10:38:47.763Z,2.20
2022-10-19T10:41:18.244Z,2.85
2022-10-19T10:44:05.023Z,2.45
2022-10-19T10:46:41.519Z,2.83
2022-10-19T10:49:21.162Z,4.13
2022-10-19T10:51:54.534Z,2.60
2022-10-19T10:54:31.523Z,2.13
2022-10-19T10:57:20.144Z,1.90
2022-10-19T10:59:47.528Z,1.55
2022-10-19T11:02:46.871Z,1.05
2022-10-19T11:05:20.403Z,1.83
2022-10-19T11:07:53.497Z,2.83
2022-10-19T11:10:32.218Z,1.33
2022-10-19T11:13:15.490Z,1.95
2022-10-19T11:16:06.352Z,1.88
2022-10-19T11:19:16.142Z,3.03
2022-10-19T11:21:56.610Z,1.83
2022-10-19T11:24:47.930Z,2.40
2022-10-19T11:27:53.323Z,1.65
2022-10-19T11:30:23.488Z,3.92
2022-10-19T11:33:00.400Z,3.28
2022-10-19T11:35:33.097Z,2.92
2022-10-19T11:38:31.418Z,1.85
2022-10-19T11:41:19.135Z,1.98
2022-10-19T11:44:11.197Z,2.17
2022-10-19T11:47:17.551Z,1.20
2022-10-19T11:52:48.957Z,1.80
2022-10-19T11:55:37.087Z,2.10
2022-10-19T11:58:21.499Z,1.20
2022-10-19T12:01:09.924Z,1.90
2022-10-19T12:04:00.157Z,1.58
2022-10-19T12:07:04.965Z,4.30
2022-10-19T12:09:43.648Z,1.08
2022-10-19T12:12:33.034Z,1.25
2022-10-19T12:15:12.941Z,2.87
2022-10-19T12:17:44.572Z,2.25
2022-10-19T12:20:19.955Z,2.13
2022-10-19T12:22:49.613Z,2.03
2022-10-19T12:25:18.570Z,2.40
2022-10-19T12:27:49.540Z,1.00
2022-10-19T12:30:22.632Z,2.00
2022-10-19T12:33:09.632Z,6.07
2022-10-19T12:36:08.046Z,3.50
2022-10-19T12:39:01.183Z,1.95
2022-10-19T12:41:44.655Z,2.40
2022-10-19T12:44:35.877Z,1.38
2022-10-19T12:47:18.294Z,1.73
2022-10-19T12:49:53.683Z,4.25
2022-10-19T12:52:41.691Z,3.53
2022-10-19T12:55:18.223Z,1.50
2022-10-19T12:57:56.909Z,1.35
2022-10-19T13:00:32.472Z,1.33
2022-10-19T13:03:24.967Z,1.17
2022-10-19T13:05:59.719Z,1.80
2022-10-19T13:08:33.365Z,0.73
2022-10-19T13:11:09.089Z,1.40
2022-10-19T13:13:57.504Z,5.80
2022-10-19T13:16:31.232Z,2.08
2022-10-19T13:19:15.367Z,4.25
2022-10-19T13:21:54.926Z,2.13
2022-10-19T13:24:25.268Z,1.08
2022-10-19T13:29:41.589Z,1.42
2022-10-19T13:32:34.153Z,1.73
2022-10-19T13:35:26.734Z,1.65
2022-10-19T13:38:09.949Z,2.30
2022-10-19T13:40:39.707Z,3.53
2022-10-19T13:43:21.572Z,1.33
2022-10-19T13:46:03.082Z,1.50
2022-10-19T13:48:57.602Z,6.15
2022-10-19T13:51:42.089Z,2.08
2022-10-19T13:54:18.000Z,1.08
2022-10-19T13:56:59.336Z,3.97
2022-10-19T14:00:00.592Z,2.45
2022-10-19T14:02:51.040Z,2.97
2022-10-19T14:08:45.185Z,2.38
2022-10-19T14:11:17.683Z,2.65
2022-10-19T14:13:45.351Z,2.80
2022-10-19T14:16:22.310Z,5.38
2022-10-19T14:18:56.788Z,10.43
2022-10-19T14:21:35.914Z,13.32
2022-10-19T14:24:03.523Z,3.40
2022-10-19T14:26:31.435Z,8.55
2022-10-19T14:29:00.362Z,5.88
2022-10-19T14:31:35.637Z,3.97
2022-10-19T14:34:04.464Z,2.13
2022-10-19T14:36:37.994Z,3.97
2022-10-19T14:39:06.357Z,2.75
2022-10-19T14:41:36.649Z,1.83
2022-10-19T14:44:30.710Z,2.17
2022-10-19T14:47:01.469Z,1.50
2022-10-19T14:49:28.894Z,1.60
2022-10-19T14:52:01.630Z,1.65
2022-10-19T14:54:44.381Z,2.55
2022-10-19T14:57:17.340Z,1.55
2022-10-19T14:59:48.202Z,1.60
2022-10-19T15:02:21.514Z,1.10
2022-10-19T15:04:50.313Z,1.00
2022-10-19T15:07:22.232Z,2.33
2022-10-19T15:10:01.681Z,1.88
2022-10-19T15:12:35.781Z,1.63
2022-10-19T15:15:12.096Z,3.50
2022-10-19T15:17:51.958Z,2.45
2022-10-19T15:20:27.223Z,2.97
2022-10-19T15:22:54.849Z,7.30
2022-10-19T15:25:34.457Z,5.63
2022-10-19T15:28:41.668Z,5.35
2022-10-19T15:31:18.631Z,5.30
2022-10-19T15:33:57.793Z,5.43
2022-10-19T15:36:26.029Z,4.97
2022-10-19T15:39:11.350Z,6.60
2022-10-19T15:41:46.356Z,4.40
2022-10-19T15:44:50.580Z,3.53
2022-10-19T15:47:19.391Z,3.13
2022-10-19T15:49:54.325Z,4.10
2022-10-19T15:52:26.969Z,3.08
2022-10-19T15:54:57.082Z,2.50
2022-10-19T15:57:39.047Z,3.65
2022-10-19T16:00:17.120Z,3.53
2022-10-19T16:02:44.608Z,3.50
2022-10-19T16:05:11.997Z,7.10
2022-10-19T16:07:41.101Z,3.97
2022-10-19T16:10:14.697Z,6.20
2022-10-19T16:12:42.118Z,5.07
2022-10-19T16:15:22.627Z,5.18
2022-10-19T16:17:56.425Z,6.00
2022-10-19T16:20:25.650Z,4.25
2022-10-19T16:22:53.869Z,4.05
2022-10-19T16:25:21.232Z,3.83
2022-10-19T16:27:48.482Z,4.22
2022-10-19T16:30:15.761Z,3.28
2022-10-19T16:32:43.122Z,3.00
2022-10-19T16:35:10.461Z,4.00
2022-10-19T16:37:37.969Z,3.95
2022-10-19T16:40:06.018Z,4.25
2022-10-19T16:42:35.370Z,2.88
2022-10-19T16:45:03.140Z,2.15
2022-10-19T16:47:30.313Z,2.58
2022-10-19T16:50:00.300Z,4.55
2022-10-19T16:52:34.113Z,3.13
2022-10-19T16:55:01.756Z,3.90
2022-10-19T16:57:29.186Z,4.65
2022-10-19T16:59:56.774Z,2.78
2022-10-19T17:02:24.284Z,3.22
2022-10-19T17:04:51.622Z,3.63
2022-10-19T17:07:19.420Z,5.43
2022-10-19T17:09:49.736Z,6.85
2022-10-19T17:12:19.745Z,3.83
2022-10-19T17:14:47.220Z,7.43
2022-10-19T17:17:14.660Z,6.05
2022-10-19T17:19:42.164Z,5.97
2022-10-19T17:22:09.355Z,6.25
2022-10-19T17:24:37.873Z,4.20
2022-10-19T17:27:05.351Z,8.98
2022-10-19T17:29:32.772Z,8.20
2022-10-19T17:32:00.395Z,6.80
2022-10-19T17:34:27.921Z,10.00
2022-10-19T17:36:55.302Z,8.65
2022-10-19T17:39:28.888Z,8.65
2022-10-19T17:42:02.189Z,8.07
2022-10-19T17:44:31.084Z,9.05
2022-10-19T17:46:58.684Z,8.90
2022-10-19T17:49:26.042Z,7.22
2022-10-19T17:51:56.422Z,5.88
2022-10-19T17:54:24.336Z,8.38
2022-10-19T17:56:51.849Z,8.73
2022-10-19T17:59:30.142Z,9.35
2022-10-19T18:02:04.212Z,7.63
2022-10-19T18:04:31.608Z,8.90
2022-10-19T18:06:58.844Z,7.53
2022-10-19T18:09:26.301Z,8.32
2022-10-19T18:11:53.443Z,6.82
2022-10-19T18:14:20.740Z,8.35
2022-10-19T18:16:48.308Z,9.43
2022-10-19T18:19:16.891Z,8.70
2022-10-19T18:21:46.191Z,8.02
2022-10-19T18:24:20.441Z,10.20
2022-10-19T18:26:50.235Z,10.07
2022-10-19T18:29:21.281Z,10.40
2022-10-19T18:31:51.898Z,8.25
2022-10-19T18:34:22.471Z,7.85
2022-10-19T18:36:50.566Z,9.18
2022-10-19T18:39:18.343Z,9.60
2022-10-19T18:41:45.597Z,8.43
2022-10-19T18:44:15.423Z,7.53
2022-10-19T18:46:42.673Z,10.00
2022-10-19T18:49:11.620Z,7.53
2022-10-19T18:51:39.239Z,13.50
2022-10-19T18:54:06.543Z,11.95
2022-10-19T18:56:36.052Z,15.00
2022-10-19T18:59:04.920Z,11.13
2022-10-19T19:01:32.321Z,11.30
2022-10-19T19:04:07.324Z,10.70
2022-10-19T19:06:36.521Z,10.43
2022-10-19T19:09:07.603Z,10.52
2022-10-19T19:11:37.749Z,11.32
2022-10-19T19:14:12.328Z,10.93
2022-10-19T19:16:40.773Z,10.30
2022-10-19T19:19:09.045Z,9.98
2022-10-19T19:21:36.901Z,8.20
2022-10-19T19:24:07.020Z,11.68
2022-10-19T19:26:38.500Z,11.88
2022-10-19T19:29:05.962Z,9.25
2022-10-19T19:31:33.756Z,13.95
2022-10-19T19:34:01.920Z,13.82
2022-10-19T19:36:29.538Z,11.63
2022-10-19T19:38:57.364Z,13.43
2022-10-19T19:41:24.847Z,10.30
2022-10-19T19:43:51.967Z,17.08
2022-10-19T19:46:20.096Z,13.18
2022-10-19T19:48:48.409Z,17.58
2022-10-19T19:51:20.951Z,14.98
2022-10-19T19:53:48.750Z,13.27
2022-10-19T19:56:16.811Z,12.38
2022-10-19T19:58:45.152Z,12.32
2022-10-19T20:01:18.364Z,13.57
2022-10-19T20:03:46.621Z,51.05
2022-10-19T20:06:17.884Z,28.52
2022-10-19T20:08:47.092Z,29.33
2022-10-19T20:11:16.460Z,27.35
2022-10-19T20:13:45.233Z,21.33
2022-10-19T20:16:18.466Z,22.33
2022-10-19T20:18:47.809Z,22.05
2022-10-19T20:21:16.073Z,18.77
2022-10-19T20:23:47.789Z,16.23
2022-10-19T20:26:16.935Z,14.40
2022-10-19T20:28:44.521Z,14.38
2022-10-19T20:31:13.414Z,14.15
2022-10-19T20:33:41.874Z,12.20
2022-10-19T20:36:16.199Z,13.00
2022-10-19T20:38:52.719Z,12.30
2022-10-19T20:41:23.831Z,11.80
2022-10-19T20:43:51.573Z,10.50
2022-10-19T20:46:22.390Z,12.95
2022-10-19T20:48:50.583Z,12.77
2022-10-19T20:51:25.913Z,14.38
2022-10-19T20:53:57.310Z,14.65
2022-10-19T20:56:28.096Z,10.57
2022-10-19T20:59:00.630Z,10.68
2022-10-19T21:01:30.433Z,13.45
2022-10-19T21:04:01.112Z,13.32
2022-10-19T21:06:30.761Z,16.65
2022-10-19T21:08:59.212Z,14.18
2022-10-19T21:11:28.805Z,14.35
2022-10-19T21:13:58.348Z,14.02
2022-10-19T21:16:28.155Z,12.30
2022-10-19T21:18:55.629Z,12.07
2022-10-19T21:21:25.483Z,12.68
2022-10-19T21:23:56.970Z,11.88
2022-10-19T21:26:31.436Z,11.82
2022-10-19T21:28:59.072Z,13.30
2022-10-19T21:31:27.560Z,10.80
2022-10-19T21:33:55.276Z,13.23
2022-10-19T21:36:25.661Z,11.35
2022-10-19T21:41:25.357Z,13.05
2022-10-19T21:43:55.033Z,13.15
2022-10-19T21:46:23.863Z,12.25
2022-10-19T21:48:51.760Z,9.77
2022-10-19T21:51:49.038Z,11.10
2022-10-19T21:54:19.395Z,11.75
2022-10-19T21:59:15.269Z,11.70
2022-10-19T22:01:42.774Z,10.60
2022-10-19T22:04:13.880Z,10.63
2022-10-19T22:06:42.279Z,13.57
2022-10-19T22:09:12.164Z,14.27
2022-10-19T22:11:39.466Z,11.55
2022-10-19T22:14:06.750Z,13.93
2022-10-19T22:16:37.150Z,15.88
2022-10-19T22:19:05.599Z,10.27
2022-10-19T22:21:35.119Z,10.38
2022-10-19T22:24:05.654Z,14.05
2022-10-19T22:26:38.851Z,10.18
2022-10-19T22:29:07.347Z,12.38
2022-10-19T22:31:36.146Z,13.55
2022-10-19T22:34:09.990Z,14.18
2022-10-19T22:36:37.367Z,11.93
2022-10-19T22:39:05.087Z,11.35
2022-10-19T22:41:32.183Z,13.40
2022-10-19T22:43:59.421Z,14.95
2022-10-19T22:46:26.769Z,13.65
2022-10-19T22:48:53.974Z,12.85
2022-10-19T22:51:21.353Z,12.75
2022-10-19T22:53:48.533Z,28.30
2022-10-19T22:56:15.951Z,35.40
2022-10-19T22:58:43.231Z,14.15
2022-10-19T23:01:14.011Z,11.93
2022-10-19T23:03:42.269Z,12.18
2022-10-19T23:06:12.097Z,11.20
2022-10-19T23:08:39.948Z,11.85
2022-10-19T23:11:07.350Z,13.57
2022-10-19T23:13:34.560Z,10.73
2022-10-19T23:16:01.991Z,11.90
2022-10-19T23:18:33.953Z,11.57
2022-10-19T23:21:03.349Z,14.00
2022-10-19T23:23:31.742Z,14.85
2022-10-19T23:26:05.842Z,16.63
2022-10-19T23:28:35.369Z,13.70
2022-10-19T23:31:08.071Z,14.30
2022-10-19T23:33:35.905Z,13.10
2022-10-19T23:36:15.191Z,16.15
2022-10-19T23:38:43.664Z,13.90
2022-10-19T23:41:11.704Z,13.60
2022-10-19T23:43:39.315Z,14.73
2022-10-19T23:46:06.909Z,12.27
2022-10-19T23:48:34.901Z,14.63
2022-10-19T23:51:08.020Z,14.77
2022-10-19T23:53:40.775Z,15.10
2022-10-19T23:56:15.262Z,14.43
2022-10-19T23:58:43.059Z,15.05
